Time;durP1;ratioP1;P1;durP2;ratioP2;P2;SDS_P1;SDS_P2;PMS_P1;PMS_P2;Temp;Humidity;BMP_temperature;BMP_pressure;BME280_temperature;BME280_humidity;BME280_pressure;Samples;Min_cycle;Max_cycle;Signal;HPM_P1;HPM_P2
2023/03/04 00:00:42;;;;;;;32.75;15.13;;;;;;;-2.12;100.00;97781.88;5074863;28;20032;-56
2023/03/04 00:03:14;;;;;;;33.22;15.13;;;;;;;-1.99;100.00;97777.94;5065702;28;20422;-57
2023/03/04 00:05:41;;;;;;;30.05;15.05;;;;;;;-1.93;100.00;97785.25;5081067;28;20049;-58
2023/03/04 00:08:07;;;;;;;26.55;12.82;;;;;;;-2.07;100.00;97778.72;5070823;28;20071;-59
2023/03/04 00:10:34;;;;;;;34.00;15.77;;;;;;;-1.97;100.00;97779.44;5072721;28;20131;-57
2023/03/04 00:13:00;;;;;;;31.92;14.98;;;;;;;-2.01;100.00;97774.59;5072373;28;20058;-55
2023/03/04 00:15:27;;;;;;;28.05;13.32;;;;;;;-2.17;100.00;97778.88;5074581;28;20044;-57
2023/03/04 00:17:53;;;;;;;28.55;14.25;;;;;;;-2.07;100.00;97780.56;5073268;28;20694;-57
2023/03/04 00:20:20;;;;;;;36.25;15.52;;;;;;;-2.13;100.00;97772.22;5079162;28;20739;-57
2023/03/04 00:22:46;;;;;;;32.80;15.32;;;;;;;-2.49;100.00;97773.28;5076585;28;20039;-57
2023/03/04 00:25:13;;;;;;;32.92;13.95;;;;;;;-2.48;100.00;97776.72;5071495;28;20044;-55
2023/03/04 00:27:40;;;;;;;25.65;13.57;;;;;;;-2.36;100.00;97775.47;5071206;28;20044;-57
2023/03/04 00:30:08;;;;;;;33.55;13.77;;;;;;;-2.41;100.00;97774.28;5069805;28;20079;-57
2023/03/04 00:32:35;;;;;;;30.98;15.15;;;;;;;-2.43;100.00;97781.56;5074439;28;20044;-54
2023/03/04 00:35:02;;;;;;;29.58;13.15;;;;;;;-2.26;100.00;97775.34;5071532;28;20105;-57
2023/03/04 00:37:29;;;;;;;35.35;13.82;;;;;;;-2.04;100.00;97777.56;5071443;28;20064;-57
2023/03/04 00:39:55;;;;;;;32.63;12.98;;;;;;;-2.01;100.00;97771.94;5076505;28;20052;-54
2023/03/04 00:42:22;;;;;;;30.38;13.63;;;;;;;-2.02;100.00;97779.09;5073951;28;20150;-57
2023/03/04 00:44:50;;;;;;;23.80;13.43;;;;;;;-1.90;100.00;97784.94;5068081;28;20036;-56
2023/03/04 00:47:16;;;;;;;27.27;12.80;;;;;;;-1.65;100.00;97777.03;5073437;28;20064;-57
2023/03/04 00:49:43;;;;;;;32.45;13.18;;;;;;;-1.62;100.00;97778.50;5068232;28;20491;-57
2023/03/04 00:52:09;;;;;;;33.42;14.52;;;;;;;-1.67;99.54;97781.66;5075653;28;20111;-57
2023/03/04 00:54:36;;;;;;;28.42;13.35;;;;;;;-2.00;100.00;97771.78;5064234;28;20045;-57
2023/03/04 00:57:02;;;;;;;30.85;14.98;;;;;;;-2.19;100.00;97780.00;5073035;28;20108;-57
2023/03/04 00:59:29;;;;;;;29.92;12.82;;;;;;;-2.26;100.00;97778.00;5074897;28;20043;-56
2023/03/04 01:01:55;;;;;;;32.15;13.75;;;;;;;-2.47;100.00;97774.94;5070136;28;20037;-55
2023/03/04 01:04:22;;;;;;;31.95;13.80;;;;;;;-2.53;100.00;97771.91;5068536;28;20084;-55
2023/03/04 01:06:49;;;;;;;28.48;12.88;;;;;;;-2.33;100.00;97776.16;5072873;28;20047;-57
2023/03/04 01:09:15;;;;;;;30.80;13.75;;;;;;;-2.55;100.00;97775.72;5072732;28;20115;-56
2023/03/04 01:11:42;;;;;;;27.73;13.70;;;;;;;-2.68;100.00;97779.63;5069490;28;20101;-57
2023/03/04 01:14:09;;;;;;;32.15;13.32;;;;;;;-2.61;100.00;97771.88;5077390;28;20122;-57
2023/03/04 01:16:36;;;;;;;30.00;13.45;;;;;;;-2.72;100.00;97774.78;5068757;28;20428;-57
2023/03/04 01:19:03;;;;;;;26.90;13.23;;;;;;;-2.59;100.00;97769.88;5073414;28;20032;-55
2023/03/04 01:21:29;;;;;;;29.65;13.80;;;;;;;-2.53;100.00;97765.78;5071132;28;20048;-56
2023/03/04 01:23:56;;;;;;;28.67;13.40;;;;;;;-2.59;100.00;97763.78;5073944;28;20059;-55
2023/03/04 01:26:22;;;;;;;28.58;11.90;;;;;;;-2.72;100.00;97769.50;5075950;28;20494;-57
2023/03/04 01:28:49;;;;;;;25.05;11.15;;;;;;;-2.71;100.00;97763.19;5073501;28;20044;-57
2023/03/04 01:31:15;;;;;;;32.08;12.88;;;;;;;-2.74;100.00;97759.03;5072577;28;20052;-56
2023/03/04 01:33:43;;;;;;;28.17;11.90;;;;;;;-2.67;100.00;97757.44;5070413;28;20086;-57
2023/03/04 01:36:09;;;;;;;32.25;12.82;;;;;;;-2.61;100.00;97766.56;5065081;28;20060;-57
2023/03/04 01:38:36;;;;;;;24.55;11.82;;;;;;;-2.64;100.00;97764.22;5079998;28;20036;-57
2023/03/04 01:41:03;;;;;;;30.77;12.95;;;;;;;-2.77;100.00;97757.53;5070526;28;20546;-58
2023/03/04 01:43:30;;;;;;;25.85;11.77;;;;;;;-2.90;100.00;97763.28;5068138;28;20043;-56
2023/03/04 01:45:57;;;;;;;24.38;12.50;;;;;;;-2.69;100.00;97758.56;5062556;28;20191;-57
2023/03/04 01:48:29;;;;;;;22.70;10.93;;;;;;;-2.64;100.00;97764.22;5070556;28;20037;-55
2023/03/04 01:50:58;;;;;;;32.03;12.60;;;;;;;-2.64;100.00;97759.78;5068654;28;20425;-57
2023/03/04 01:53:26;;;;;;;21.63;10.63;;;;;;;-2.66;100.00;97766.22;5068121;28;20076;-57
2023/03/04 01:56:00;;;;;;;29.20;13.00;;;;;;;-2.58;100.00;97760.13;5062457;28;20102;-58
2023/03/04 01:58:29;;;;;;;29.85;11.35;;;;;;;-2.46;100.00;97763.31;5075966;28;20044;-55
2023/03/04 02:00:57;;;;;;;26.73;12.25;;;;;;;-2.46;100.00;97760.66;5071934;28;20036;-57
2023/03/04 02:03:24;;;;;;;24.45;10.65;;;;;;;-2.29;100.00;97761.59;5067211;28;20051;-57
2023/03/04 02:05:52;;;;;;;24.65;11.60;;;;;;;-2.28;100.00;97768.53;5067592;28;20045;-57
2023/03/04 02:08:22;;;;;;;22.98;10.55;;;;;;;-2.24;100.00;97761.94;5071315;28;20039;-57
2023/03/04 02:10:50;;;;;;;25.48;12.82;;;;;;;-2.24;100.00;97757.44;5065515;28;20109;-57
2023/03/04 02:13:16;;;;;;;25.00;11.85;;;;;;;-2.26;100.00;97751.47;5068649;28;20109;-56
2023/03/04 02:15:45;;;;;;;23.83;11.98;;;;;;;-2.33;100.00;97745.13;5070153;28;20043;-57
2023/03/04 02:18:23;;;;;;;29.90;11.88;;;;;;;-2.65;100.00;97741.38;5075724;28;20029;-57
2023/03/04 02:20:55;;;;;;;25.25;12.35;;;;;;;-2.66;100.00;97745.81;5071335;28;20118;-57
2023/03/04 02:23:34;;;;;;;28.23;12.38;;;;;;;-2.41;100.00;97748.59;5065129;28;20052;-57
2023/03/04 02:26:12;;;;;;;27.33;11.60;;;;;;;-2.49;100.00;97744.09;5064874;28;20500;-56
2023/03/04 02:28:39;;;;;;;24.45;11.77;;;;;;;-2.56;100.00;97734.25;5070227;28;20499;-56
2023/03/04 02:31:20;;;;;;;23.10;10.93;;;;;;;-2.55;100.00;97734.13;5069990;28;20048;-58
2023/03/04 02:33:48;;;;;;;23.20;11.85;;;;;;;-2.47;100.00;97746.56;5066778;28;20047;-57
2023/03/04 02:36:14;;;;;;;25.25;10.70;;;;;;;-2.57;100.00;97740.56;5068450;28;20059;-58
2023/03/04 02:38:41;;;;;;;22.15;12.07;;;;;;;-2.59;100.00;97737.25;5067012;28;20140;-61
2023/03/04 02:41:12;;;;;;;27.50;11.40;;;;;;;-2.62;100.00;97743.69;5074572;28;20067;-58
2023/03/04 02:43:39;;;;;;;28.70;12.15;;;;;;;-2.60;100.00;97744.38;5066074;28;20064;-57
2023/03/04 02:46:09;;;;;;;27.13;12.18;;;;;;;-2.52;100.00;97752.38;5083713;28;20041;-57
2023/03/04 02:48:36;;;;;;;26.00;11.77;;;;;;;-2.40;100.00;97746.78;5069350;28;20040;-57
2023/03/04 02:51:02;;;;;;;28.33;11.52;;;;;;;-2.48;100.00;97744.91;5076377;28;20040;-58
2023/03/04 02:53:31;;;;;;;22.92;10.73;;;;;;;-2.57;100.00;97741.41;5065017;28;20542;-58
2023/03/04 02:55:58;;;;;;;27.70;11.38;;;;;;;-2.57;100.00;97751.16;5062447;28;20062;-58
2023/03/04 02:58:31;;;;;;;25.25;12.55;;;;;;;-2.40;100.00;97746.78;5076226;28;20044;-58
2023/03/04 03:00:58;;;;;;;27.73;12.25;;;;;;;-2.47;100.00;97737.78;5073243;28;20575;-57
2023/03/04 03:03:26;;;;;;;24.38;12.43;;;;;;;-2.57;100.00;97743.22;5067184;28;20400;-57
2023/03/04 03:05:54;;;;;;;25.33;11.23;;;;;;;-2.63;100.00;97747.31;5077118;28;20085;-58
2023/03/04 03:08:21;;;;;;;28.48;11.40;;;;;;;-2.56;100.00;97747.53;5069116;28;20050;-57
2023/03/04 03:10:47;;;;;;;23.83;10.63;;;;;;;-2.66;100.00;97743.19;5076687;28;20106;-58
2023/03/04 03:13:15;;;;;;;27.65;12.57;;;;;;;-2.74;100.00;97748.44;5072624;28;20040;-58
2023/03/04 03:15:41;;;;;;;28.05;12.10;;;;;;;-2.87;100.00;97744.38;5069052;28;20139;-57
2023/03/04 03:18:10;;;;;;;25.33;11.43;;;;;;;-2.75;100.00;97744.13;5066610;28;20040;-58
2023/03/04 03:20:36;;;;;;;25.58;13.15;;;;;;;-2.77;100.00;97744.28;5068758;28;20675;-59
2023/03/04 03:23:03;;;;;;;23.92;12.40;;;;;;;-2.90;100.00;97749.19;5072855;28;20036;-57
2023/03/04 03:25:30;;;;;;;22.40;10.68;;;;;;;-3.05;100.00;97738.31;5065228;28;20131;-58
2023/03/04 03:27:57;;;;;;;24.60;11.77;;;;;;;-3.14;100.00;97740.06;5064534;28;20029;-58
2023/03/04 03:30:23;;;;;;;25.88;11.48;;;;;;;-3.13;100.00;97741.75;5068152;28;20041;-57
2023/03/04 03:32:50;;;;;;;32.80;12.65;;;;;;;-2.95;100.00;97743.53;5065510;28;20040;-58
2023/03/04 03:35:17;;;;;;;27.40;12.25;;;;;;;-2.85;100.00;97744.22;5066704;28;20075;-57
2023/03/04 03:37:43;;;;;;;23.80;11.68;;;;;;;-2.68;100.00;97731.91;5067099;28;20075;-58
2023/03/04 03:40:11;;;;;;;25.30;11.63;;;;;;;-2.68;100.00;97731.91;5069212;28;20093;-57
2023/03/04 03:42:37;;;;;;;25.00;11.82;;;;;;;-2.75;100.00;97730.88;5072141;28;20047;-58
2023/03/04 03:45:04;;;;;;;24.65;11.48;;;;;;;-2.66;100.00;97732.56;5066846;28;20044;-57
2023/03/04 03:47:31;;;;;;;24.08;11.60;;;;;;;-2.67;100.00;97730.91;5070844;28;20044;-58
2023/03/04 03:49:57;;;;;;;32.03;12.70;;;;;;;-2.76;100.00;97731.88;5064088;28;20036;-58
2023/03/04 03:52:24;;;;;;;30.38;13.70;;;;;;;-2.69;100.00;97732.06;5064344;28;20047;-56
2023/03/04 03:54:50;;;;;;;27.42;12.55;;;;;;;-2.69;100.00;97734.72;5064643;28;20103;-56
2023/03/04 03:57:17;;;;;;;26.95;11.35;;;;;;;-2.81;100.00;97740.28;5072577;28;20044;-55
2023/03/04 03:59:43;;;;;;;30.42;12.40;;;;;;;-2.75;100.00;97731.72;5071541;28;20135;-56
2023/03/04 04:02:10;;;;;;;27.08;12.63;;;;;;;-2.78;100.00;97733.84;5070988;28;20531;-57
2023/03/04 04:04:36;;;;;;;28.10;12.25;;;;;;;-2.81;100.00;97731.50;5067346;28;20067;-58
2023/03/04 04:07:03;;;;;;;27.73;12.13;;;;;;;-2.97;100.00;97734.88;5068145;28;20041;-57
2023/03/04 04:09:29;;;;;;;28.92;11.98;;;;;;;-3.26;100.00;97734.19;5080024;28;20128;-57
2023/03/04 04:11:56;;;;;;;26.45;12.20;;;;;;;-3.44;100.00;97740.38;5067420;28;20045;-58
2023/03/04 04:14:23;;;;;;;31.17;12.20;;;;;;;-3.35;100.00;97741.28;5070800;28;20117;-57
2023/03/04 04:16:50;;;;;;;25.05;12.02;;;;;;;-3.37;100.00;97740.56;5071578;28;20124;-56
2023/03/04 04:19:18;;;;;;;34.58;13.23;;;;;;;-3.07;100.00;97741.13;5077013;28;20491;-56
2023/03/04 04:21:45;;;;;;;29.75;12.02;;;;;;;-3.00;100.00;97730.72;5073191;28;20067;-57
2023/03/04 04:24:12;;;;;;;24.83;13.40;;;;;;;-3.38;100.00;97730.13;5069639;28;20040;-57
2023/03/04 04:26:39;;;;;;;24.73;12.15;;;;;;;-3.43;100.00;97735.91;5069151;28;20048;-57
2023/03/04 04:29:06;;;;;;;27.23;11.18;;;;;;;-3.37;100.00;97737.09;5077071;28;20032;-57
2023/03/04 04:31:33;;;;;;;31.17;12.15;;;;;;;-3.53;100.00;97739.44;5071989;28;20049;-57
2023/03/04 04:34:00;;;;;;;27.65;13.73;;;;;;;-3.59;100.00;97736.59;5068342;28;20107;-57
2023/03/04 04:36:27;;;;;;;27.42;11.48;;;;;;;-3.62;100.00;97739.56;5074465;28;20040;-57
2023/03/04 04:38:53;;;;;;;27.10;11.80;;;;;;;-3.57;100.00;97746.03;5071664;28;20043;-57
2023/03/04 04:41:23;;;;;;;29.20;13.40;;;;;;;-3.68;100.00;97747.09;5067928;28;20127;-57
2023/03/04 04:43:50;;;;;;;26.17;12.68;;;;;;;-3.84;100.00;97757.56;5069010;28;20059;-56
2023/03/04 04:46:17;;;;;;;28.20;11.63;;;;;;;-4.02;100.00;97752.25;5075955;28;20094;-55
2023/03/04 04:48:43;;;;;;;26.98;12.55;;;;;;;-4.06;100.00;97739.31;5074513;28;20036;-57
2023/03/04 04:51:10;;;;;;;29.33;12.32;;;;;;;-4.08;100.00;97749.22;5073912;28;20531;-57
2023/03/04 04:53:37;;;;;;;26.52;11.85;;;;;;;-3.98;100.00;97751.78;5069574;28;20128;-56
2023/03/04 04:56:11;;;;;;;37.15;13.13;;;;;;;-3.80;100.00;97743.84;5078268;28;20043;-55
2023/03/04 04:58:38;;;;;;;36.00;13.38;;;;;;;-3.74;100.00;97745.06;5070402;28;20103;-58
2023/03/04 05:01:05;;;;;;;26.88;12.27;;;;;;;-3.83;100.00;97744.16;5073041;28;20526;-57
2023/03/04 05:03:34;;;;;;;34.13;13.02;;;;;;;-3.71;100.00;97743.94;5071182;28;20101;-56
2023/03/04 05:06:00;;;;;;;29.90;13.63;;;;;;;-3.47;100.00;97747.78;5074088;28;20765;-55
2023/03/04 05:08:27;;;;;;;28.50;13.38;;;;;;;-3.35;100.00;97749.22;5076597;28;20049;-57
2023/03/04 05:10:54;;;;;;;32.20;13.32;;;;;;;-3.42;100.00;97748.16;5077485;28;20130;-57
2023/03/04 05:13:20;;;;;;;29.15;12.00;;;;;;;-3.52;100.00;97748.22;5075052;28;20045;-57
2023/03/04 05:15:50;;;;;;;27.58;12.85;;;;;;;-3.78;100.00;97754.28;5074605;28;20637;-57
2023/03/04 05:18:16;;;;;;;27.20;11.13;;;;;;;-3.94;100.00;97760.25;5074498;28;20089;-57
2023/03/04 05:20:43;;;;;;;30.38;12.52;;;;;;;-3.94;100.00;97761.06;5071511;28;20155;-57
2023/03/04 05:23:09;;;;;;;24.67;11.18;;;;;;;-3.93;100.00;97760.13;5073352;28;20089;-56
2023/03/04 05:25:36;;;;;;;34.90;13.65;;;;;;;-4.13;100.00;97763.88;5075940;28;20044;-56
2023/03/04 05:28:03;;;;;;;30.83;12.70;;;;;;;-4.25;100.00;97765.84;5082395;28;20498;-56
2023/03/04 05:30:30;;;;;;;33.40;12.23;;;;;;;-4.27;100.00;97773.13;5075474;28;20094;-57
2023/03/04 05:32:56;;;;;;;32.65;13.45;;;;;;;-4.23;100.00;97771.84;5083035;28;20044;-56
2023/03/04 05:35:23;;;;;;;33.08;13.20;;;;;;;-4.25;100.00;97761.41;5080250;28;20048;-57
2023/03/04 05:37:51;;;;;;;32.67;14.45;;;;;;;-4.21;100.00;97772.50;5081012;28;20071;-55
2023/03/04 05:40:17;;;;;;;37.40;13.20;;;;;;;-4.19;100.00;97760.00;5078228;28;20040;-56
2023/03/04 05:42:44;;;;;;;33.50;13.80;;;;;;;-4.39;100.00;97762.72;5076254;28;20105;-57
2023/03/04 05:45:10;;;;;;;34.72;14.07;;;;;;;-4.35;100.00;97768.56;5072698;28;20079;-57
2023/03/04 05:47:37;;;;;;;40.53;15.25;;;;;;;-4.44;100.00;97768.47;5071249;28;20067;-57
2023/03/04 05:50:04;;;;;;;37.92;14.73;;;;;;;-4.62;100.00;97778.97;5075492;28;20067;-57
2023/03/04 05:52:30;;;;;;;43.05;15.38;;;;;;;-4.70;100.00;97769.13;5075875;28;20123;-50
2023/03/04 05:54:57;;;;;;;35.25;14.90;;;;;;;-4.76;100.00;97761.78;5085020;28;20115;-55
2023/03/04 05:57:23;;;;;;;43.35;16.85;;;;;;;-4.71;100.00;97774.56;5075007;28;20080;-53
2023/03/04 05:59:50;;;;;;;41.30;15.05;;;;;;;-4.66;100.00;97777.59;5073561;28;20044;-53
2023/03/04 06:02:16;;;;;;;43.03;17.02;;;;;;;-4.72;100.00;97773.72;5075026;28;20110;-53
2023/03/04 06:04:43;;;;;;;39.50;15.60;;;;;;;-4.72;100.00;97783.47;5074823;28;20048;-52
2023/03/04 06:07:09;;;;;;;43.53;16.00;;;;;;;-4.66;100.00;97784.69;5072846;28;20526;-52
2023/03/04 06:09:36;;;;;;;34.40;14.35;;;;;;;-4.64;100.00;97783.56;5074065;28;20040;-53
2023/03/04 06:12:03;;;;;;;41.50;14.98;;;;;;;-4.72;100.00;97791.41;5076124;28;20071;-54
2023/03/04 06:14:29;;;;;;;40.22;15.98;;;;;;;-4.85;100.00;97792.53;5067756;28;20534;-53
2023/03/04 06:16:56;;;;;;;34.88;15.13;;;;;;;-4.79;100.00;97791.13;5076926;28;20132;-50
2023/03/04 06:19:22;;;;;;;37.78;15.40;;;;;;;-4.70;100.00;97800.84;5076548;28;20591;-54
2023/03/04 06:21:49;;;;;;;39.50;15.35;;;;;;;-4.77;100.00;97793.63;5076727;28;20047;-54
2023/03/04 06:24:15;;;;;;;36.28;16.15;;;;;;;-4.78;100.00;97805.16;5070507;28;20036;-53
2023/03/04 06:26:42;;;;;;;41.85;17.15;;;;;;;-4.72;100.00;97807.25;5074590;28;20086;-52
2023/03/04 06:29:09;;;;;;;38.90;15.75;;;;;;;-4.71;100.00;97808.91;5077551;28;20081;-54
2023/03/04 06:31:35;;;;;;;37.05;16.00;;;;;;;-4.77;100.00;97810.31;5074647;28;20122;-53
2023/03/04 06:34:02;;;;;;;34.80;14.48;;;;;;;-4.50;100.00;97815.81;5073115;28;20044;-53
2023/03/04 06:36:29;;;;;;;40.72;16.48;;;;;;;-4.44;100.00;97820.50;5071569;28;20122;-53
2023/03/04 06:38:55;;;;;;;46.25;15.90;;;;;;;-4.40;100.00;97818.38;5077140;28;20047;-53
2023/03/04 06:41:22;;;;;;;49.25;17.52;;;;;;;-4.09;100.00;97821.59;5073731;28;20046;-56
2023/03/04 06:43:48;;;;;;;43.70;16.77;;;;;;;-3.87;100.00;97813.41;5075796;28;20067;-54
2023/03/04 06:46:15;;;;;;;46.78;18.63;;;;;;;-3.60;100.00;97819.63;5069989;28;20503;-54
2023/03/04 06:48:41;;;;;;;41.85;16.58;;;;;;;-3.23;100.00;97821.31;5075246;28;20032;-53
2023/03/04 06:51:09;;;;;;;45.75;17.42;;;;;;;-3.27;100.00;97823.41;5078134;28;20056;-55
2023/03/04 06:53:37;;;;;;;44.30;17.73;;;;;;;-3.20;100.00;97834.25;5070444;28;20106;-55
2023/03/04 06:56:05;;;;;;;46.47;18.85;;;;;;;-3.10;100.00;97831.50;5074828;28;20067;-54
2023/03/04 06:58:31;;;;;;;44.58;17.35;;;;;;;-2.94;100.00;97836.13;5074009;28;20152;-51
2023/03/04 07:01:11;;;;;;;55.40;20.25;;;;;;;-2.61;100.00;97835.50;5076590;28;20052;-53
2023/03/04 07:03:38;;;;;;;45.33;17.08;;;;;;;-2.47;100.00;97838.56;5071818;28;20052;-55
2023/03/04 07:06:04;;;;;;;44.42;16.58;;;;;;;-2.44;100.00;97831.13;5075924;28;20050;-54
2023/03/04 07:08:31;;;;;;;49.72;18.98;;;;;;;-2.33;100.00;97834.50;5072912;28;20068;-54
2023/03/04 07:10:57;;;;;;;48.95;18.52;;;;;;;-2.16;100.00;97830.94;5076713;28;20093;-52
2023/03/04 07:13:24;;;;;;;33.00;14.07;;;;;;;-2.07;100.00;97837.09;5070571;28;20056;-54
2023/03/04 07:15:51;;;;;;;43.10;17.38;;;;;;;-2.05;100.00;97840.44;5076281;28;20119;-54
2023/03/04 07:18:18;;;;;;;40.38;18.98;;;;;;;-2.20;100.00;97840.22;5073759;28;20674;-53
2023/03/04 07:20:44;;;;;;;38.45;15.73;;;;;;;-1.94;100.00;97846.44;5076088;28;20090;-55
2023/03/04 07:23:11;;;;;;;39.90;15.55;;;;;;;-1.86;100.00;97843.81;5075063;28;20072;-53
2023/03/04 07:25:37;;;;;;;37.97;14.50;;;;;;;-1.90;100.00;97845.97;5073443;28;20047;-54
2023/03/04 07:28:04;;;;;;;42.90;16.00;;;;;;;-1.80;100.00;97845.84;5070666;28;20070;-55
2023/03/04 07:30:30;;;;;;;39.45;15.73;;;;;;;-1.91;100.00;97846.97;5072819;28;20051;-55
2023/03/04 07:32:57;;;;;;;34.42;15.48;;;;;;;-1.78;100.00;97848.31;5072196;28;20411;-54
2023/03/04 07:35:23;;;;;;;31.25;14.00;;;;;;;-1.78;100.00;97851.81;5082688;28;20098;-55
2023/03/04 07:37:50;;;;;;;30.85;14.52;;;;;;;-1.90;100.00;97850.44;5082989;28;20044;-54
2023/03/04 07:40:17;;;;;;;28.92;13.05;;;;;;;-1.78;100.00;97851.81;5079468;28;20035;-55
2023/03/04 07:42:48;;;;;;;31.77;13.80;;;;;;;-1.62;100.00;97863.50;5078803;28;20052;-55
2023/03/04 07:45:14;;;;;;;30.42;13.65;;;;;;;-1.53;100.00;97853.69;5078951;28;20070;-54
2023/03/04 07:47:41;;;;;;;29.42;12.80;;;;;;;-1.51;100.00;97862.34;5087315;28;20039;-54
2023/03/04 07:50:09;;;;;;;31.48;15.10;;;;;;;-1.38;100.00;97862.72;5083158;28;20097;-53
2023/03/04 07:52:40;;;;;;;31.98;13.20;;;;;;;-1.37;100.00;97861.72;5076639;28;20043;-52
2023/03/04 07:55:08;;;;;;;32.50;13.65;;;;;;;-1.28;100.00;97870.53;5084153;28;20134;-55
2023/03/04 07:57:37;;;;;;;28.13;12.23;;;;;;;-1.20;100.00;97861.75;5080589;28;20044;-55
2023/03/04 08:00:04;;;;;;;29.33;12.30;;;;;;;-1.27;100.00;97874.00;5073642;28;20554;-52
2023/03/04 08:02:38;;;;;;;65.60;23.38;;;;;;;-1.19;100.00;97864.25;5077284;28;20045;-52
2023/03/04 08:05:05;;;;;;;47.17;18.50;;;;;;;-1.24;100.00;97866.56;5081211;28;20036;-52
2023/03/04 08:07:32;;;;;;;42.30;15.98;;;;;;;-1.36;100.00;97866.03;5077664;28;20648;-53
2023/03/04 08:09:59;;;;;;;56.38;21.65;;;;;;;-1.37;100.00;97868.88;5075971;28;20081;-55
2023/03/04 08:12:26;;;;;;;44.15;18.88;;;;;;;-1.20;100.00;97870.56;5074552;28;20044;-55
2023/03/04 08:14:53;;;;;;;40.60;16.30;;;;;;;-1.13;100.00;97877.84;5076032;28;20534;-54
2023/03/04 08:17:20;;;;;;;30.58;15.23;;;;;;;-1.26;100.00;97881.00;5074909;28;20058;-52
2023/03/04 08:19:46;;;;;;;26.38;13.25;;;;;;;-1.31;100.00;97885.00;5080211;28;20036;-53
2023/03/04 08:22:13;;;;;;;33.25;14.18;;;;;;;-1.18;100.00;97887.16;5079375;28;20702;-54
2023/03/04 08:24:39;;;;;;;25.77;12.10;;;;;;;-1.10;100.00;97880.19;5077154;28;20041;-55
2023/03/04 08:27:06;;;;;;;24.60;12.98;;;;;;;-1.00;100.00;97888.03;5079155;28;20067;-49
2023/03/04 08:29:32;;;;;;;29.27;13.40;;;;;;;-0.90;100.00;97888.69;5070387;28;20504;-53
2023/03/04 08:31:59;;;;;;;26.38;13.43;;;;;;;-0.94;100.00;97880.22;5072890;28;20048;-56
2023/03/04 08:34:27;;;;;;;29.15;12.80;;;;;;;-0.96;100.00;97890.16;5078738;28;20051;-54
2023/03/04 08:36:54;;;;;;;25.67;12.20;;;;;;;-0.95;100.00;97888.34;5074546;28;20124;-54
2023/03/04 08:39:20;;;;;;;50.35;18.88;;;;;;;-0.80;100.00;97893.84;5085109;28;20036;-56
2023/03/04 08:41:48;;;;;;;47.33;18.98;;;;;;;-0.64;100.00;97887.69;5073069;28;20093;-51
2023/03/04 08:44:14;;;;;;;64.80;22.10;;;;;;;-0.45;100.00;97885.66;5077896;28;20040;-54
2023/03/04 08:46:42;;;;;;;79.82;30.45;;;;;;;-0.36;99.89;97889.16;5076033;28;20047;-52
2023/03/04 08:49:10;;;;;;;40.85;15.43;;;;;;;-0.30;98.70;97883.13;5072573;28;20543;-55
2023/03/04 08:51:37;;;;;;;24.67;12.65;;;;;;;-0.08;95.30;97889.59;5073208;28;20068;-56
2023/03/04 08:54:04;;;;;;;36.08;16.58;;;;;;;-0.01;95.65;97887.06;5081383;28;20115;-55
2023/03/04 08:56:31;;;;;;;33.80;15.13;;;;;;;0.04;95.18;97886.56;5073564;28;20086;-56
2023/03/04 08:58:58;;;;;;;39.90;15.20;;;;;;;0.16;95.71;97889.69;5078709;28;20505;-56
2023/03/04 09:01:24;;;;;;;28.05;13.98;;;;;;;0.15;96.44;97886.19;5080326;28;20063;-51
2023/03/04 09:03:51;;;;;;;29.08;15.10;;;;;;;-0.03;94.83;97889.09;5072831;28;20043;-57
2023/03/04 09:06:18;;;;;;;28.17;15.15;;;;;;;0.06;94.24;97887.22;5076228;28;20044;-54
2023/03/04 09:08:45;;;;;;;30.27;14.65;;;;;;;-0.13;95.06;97889.28;5082835;28;20552;-50
2023/03/04 09:11:12;;;;;;;28.52;14.82;;;;;;;-0.09;94.23;97895.06;5075558;28;20039;-55
2023/03/04 09:13:39;;;;;;;27.13;13.00;;;;;;;0.10;94.47;97889.38;5071620;28;20142;-55
2023/03/04 09:16:10;;;;;;;27.90;13.93;;;;;;;0.27;92.28;97883.97;5079259;28;20051;-55
2023/03/04 09:18:38;;;;;;;30.15;15.15;;;;;;;0.18;92.06;97893.81;5076481;28;20047;-56
2023/03/04 09:21:05;;;;;;;29.17;14.68;;;;;;;0.28;91.05;97893.63;5079101;28;20044;-56
2023/03/04 09:23:32;;;;;;;31.75;16.67;;;;;;;0.16;90.80;97895.00;5071324;28;20120;-55
2023/03/04 09:25:59;;;;;;;29.40;16.55;;;;;;;0.10;90.65;97892.03;5073206;28;20094;-56
2023/03/04 09:28:25;;;;;;;30.75;14.40;;;;;;;0.36;90.35;97892.75;5073372;28;20040;-52
2023/03/04 09:30:52;;;;;;;32.42;14.77;;;;;;;0.47;89.68;97896.88;5072274;28;20032;-55
2023/03/04 09:33:18;;;;;;;32.05;16.90;;;;;;;0.32;91.65;97900.28;5072070;28;20051;-55
2023/03/04 09:35:47;;;;;;;33.45;15.07;;;;;;;0.41;92.72;97898.41;5073898;28;20115;-52
2023/03/04 09:38:14;;;;;;;26.90;15.60;;;;;;;0.09;91.24;97898.38;5076232;28;20101;-55
2023/03/04 09:40:43;;;;;;;35.90;15.82;;;;;;;0.19;93.52;97892.00;5078277;28;20040;-54
2023/03/04 09:43:21;;;;;;;31.50;17.05;;;;;;;0.21;92.10;97890.81;5071169;28;20046;-53
2023/03/04 09:45:54;;;;;;;36.58;17.92;;;;;;;0.33;91.86;97888.59;5076061;28;20047;-53
2023/03/04 09:48:24;;;;;;;34.00;16.35;;;;;;;0.49;91.34;97892.22;5071569;28;20557;-53
2023/03/04 09:51:29;;;;;;;40.40;18.10;;;;;;;0.66;90.68;97884.94;5071242;28;20064;-54
2023/03/04 09:54:05;;;;;;;41.20;20.17;;;;;;;0.40;91.16;97879.94;5072156;28;20055;-55
2023/03/04 09:56:37;;;;;;;35.55;17.15;;;;;;;0.69;89.87;97891.75;5073821;28;20131;-54
2023/03/04 09:59:06;;;;;;;34.03;17.58;;;;;;;0.83;88.43;97891.00;5076962;28;20143;-54
2023/03/04 10:01:57;;;;;;;36.33;18.83;;;;;;;0.90;87.35;97886.66;5073258;28;20131;-54
2023/03/04 10:04:45;;;;;;;37.53;19.05;;;;;;;0.90;86.25;97889.31;5073806;28;20503;-56
2023/03/04 10:07:19;;;;;;;40.50;18.35;;;;;;;0.97;86.65;97899.25;5072718;28;20135;-52
2023/03/04 10:10:09;;;;;;;41.63;19.33;;;;;;;1.02;85.15;97889.72;5085030;28;20065;-56
2023/03/04 10:12:41;;;;;;;45.13;21.70;;;;;;;0.64;87.29;97890.47;5071021;28;20051;-56
2023/03/04 10:15:23;;;;;;;43.35;19.83;;;;;;;0.72;87.76;97899.41;5072396;28;20497;-55
2023/03/04 10:18:00;;;;;;;45.13;22.42;;;;;;;0.66;88.09;97897.44;5079195;28;20109;-54
2023/03/04 10:20:42;;;;;;;47.85;22.52;;;;;;;0.74;88.20;97886.75;5073293;28;20491;-55
2023/03/04 10:23:10;;;;;;;;;;;;;;;0.78;85.41;97896.88;5076752;28;20032;-55
2023/03/04 10:25:43;;;;;;;42.60;18.35;;;;;;;0.54;87.20;97887.19;5075683;28;19989;-56
2023/03/04 10:28:18;;;;;;;42.13;19.20;;;;;;;0.76;86.99;97880.22;5072024;28;20036;-55
2023/03/04 10:31:00;;;;;;;44.05;18.80;;;;;;;0.70;86.08;97893.44;5073737;28;20409;-53
2023/03/04 10:33:36;;;;;;;41.33;19.27;;;;;;;0.70;86.02;97888.91;5075484;28;20050;-56
2023/03/04 10:36:25;;;;;;;36.20;17.70;;;;;;;0.82;84.50;97878.69;5069368;28;20044;-53
2023/03/04 10:39:01;;;;;;;40.28;19.92;;;;;;;0.67;85.84;97875.97;5073077;28;20093;-57
2023/03/04 10:41:29;;;;;;;38.75;19.67;;;;;;;0.74;87.20;97882.22;5073777;28;20036;-51
2023/03/04 10:44:08;;;;;;;41.60;20.50;;;;;;;0.91;85.32;97874.13;5076978;28;20446;-54
2023/03/04 10:46:40;;;;;;;36.35;18.55;;;;;;;1.00;85.75;97870.38;5072284;28;20521;-56
2023/03/04 10:49:09;;;;;;;40.15;19.95;;;;;;;1.05;84.41;97869.88;5073832;28;20097;-55
2023/03/04 10:51:48;;;;;;;38.10;18.73;;;;;;;1.06;84.72;97868.84;5065205;28;20825;-55
2023/03/04 10:54:29;;;;;;;35.70;16.27;;;;;;;1.03;85.79;97866.53;5063314;28;20160;-53
2023/03/04 10:57:15;;;;;;;34.37;17.43;;;;;;;1.22;82.20;97867.06;5070176;28;20568;-55
2023/03/04 10:59:49;;;;;;;38.40;17.42;;;;;;;1.13;82.68;97863.63;5073417;28;20147;-53
2023/03/04 11:02:33;;;;;;;38.88;19.45;;;;;;;1.38;80.92;97866.94;5074503;28;20048;-57
2023/03/04 11:05:08;;;;;;;35.38;19.17;;;;;;;0.98;83.11;97856.41;5071102;28;20065;-57
2023/03/04 11:07:58;;;;;;;40.65;18.45;;;;;;;0.99;84.38;97855.41;5071563;28;20050;-55
2023/03/04 11:10:36;;;;;;;36.25;17.50;;;;;;;1.21;82.06;97860.09;5078610;28;20036;-55
2023/03/04 11:13:14;;;;;;;35.45;17.83;;;;;;;1.10;83.79;97854.16;5072243;28;20542;-57
2023/03/04 11:15:50;;;;;;;37.58;20.75;;;;;;;1.22;83.56;97857.22;5077477;28;21436;-54
2023/03/04 11:18:23;;;;;;;33.15;18.00;;;;;;;1.45;80.84;97848.38;5077620;28;20658;-55